createdAt,value
2022-12-13T00:01:24.733Z,-5.09
2022-12-13T00:03:58.690Z,-5.15
2022-12-13T00:06:25.787Z,-5.07
2022-12-13T00:08:53.182Z,-5.05
2022-12-13T00:11:20.058Z,-5.18
2022-12-13T00:13:48.025Z,-5.11
2022-12-13T00:16:17.830Z,-5.18
2022-12-13T00:18:49.549Z,-5.14
2022-12-13T00:21:19.438Z,-5.17
2022-12-13T00:23:46.970Z,-5.25
2022-12-13T00:26:16.462Z,-5.18
2022-12-13T00:28:43.453Z,-5.21
2022-12-13T00:31:51.561Z,-5.31
2022-12-13T00:33:58.177Z,-5.35
2022-12-13T00:36:24.727Z,-5.28
2022-12-13T00:39:00.509Z,-5.29
2022-12-13T00:41:32.897Z,-5.29
2022-12-13T00:44:00.615Z,-5.27
2022-12-13T00:46:28.251Z,-5.30
2022-12-13T00:48:59.972Z,-5.27
2022-12-13T00:51:28.907Z,-5.29
2022-12-13T00:53:55.888Z,-5.31
2022-12-13T00:56:28.905Z,-5.44
2022-12-13T00:58:56.653Z,-5.45
2022-12-13T01:01:29.199Z,-5.36
2022-12-13T01:03:59.340Z,-5.30
2022-12-13T01:06:44.005Z,-5.37
2022-12-13T01:09:20.150Z,-5.36
2022-12-13T01:11:47.661Z,-5.42
2022-12-13T01:14:14.756Z,-5.44
2022-12-13T01:16:41.317Z,-5.38
2022-12-13T01:19:07.969Z,-5.41
2022-12-13T01:21:34.582Z,-5.48
2022-12-13T01:24:05.748Z,-5.49
2022-12-13T01:26:33.554Z,-5.54
2022-12-13T01:29:00.990Z,-5.59
2022-12-13T01:31:27.570Z,-5.62
2022-12-13T01:33:54.226Z,-5.74
2022-12-13T01:36:27.293Z,-5.65
2022-12-13T01:38:58.033Z,-5.69
2022-12-13T01:41:27.335Z,-5.76
2022-12-13T01:43:57.469Z,-5.84
2022-12-13T01:46:24.130Z,-5.73
2022-12-13T01:49:20.274Z,-5.70
2022-12-13T01:51:52.867Z,-5.71
2022-12-13T01:54:33.703Z,-5.75
2022-12-13T01:57:04.755Z,-5.67
2022-12-13T02:07:49.496Z,-5.79
2022-12-13T02:10:16.112Z,-5.70
2022-12-13T02:12:43.385Z,-5.72
2022-12-13T02:15:15.250Z,-5.88
2022-12-13T02:18:00.293Z,-5.81
2022-12-13T02:20:42.861Z,-5.76
2022-12-13T02:23:40.436Z,-5.76
2022-12-13T02:26:47.774Z,-5.75
2022-12-13T02:29:49.560Z,-5.76
2022-12-13T02:32:30.118Z,-5.95
2022-12-13T02:35:18.654Z,-5.85
2022-12-13T02:37:56.680Z,-5.98
2022-12-13T02:40:47.511Z,-5.86
2022-12-13T02:43:22.510Z,-5.87
2022-12-13T02:45:52.403Z,-6.18
2022-12-13T02:48:23.908Z,-5.89
2022-12-13T02:50:52.090Z,-6.27
2022-12-13T02:53:21.412Z,-5.92
2022-12-13T02:55:48.015Z,-5.99
2022-12-13T02:58:18.961Z,-5.94
2022-12-13T03:00:58.487Z,-5.92
2022-12-13T03:04:14.888Z,-5.88
2022-12-13T03:07:00.013Z,-5.87
2022-12-13T03:09:50.394Z,-5.91
2022-12-13T03:12:57.760Z,-5.89
2022-12-13T03:15:34.978Z,-6.02
2022-12-13T03:18:15.434Z,-5.99
2022-12-13T03:20:47.550Z,-6.01
2022-12-13T03:23:14.562Z,-6.03
2022-12-13T03:25:41.132Z,-6.00
2022-12-13T03:28:07.740Z,-6.05
2022-12-13T03:30:34.383Z,-6.22
2022-12-13T03:33:01.431Z,-6.15
2022-12-13T03:35:34.156Z,-6.28
2022-12-13T03:38:02.316Z,-6.21
2022-12-13T03:40:30.061Z,-6.27
2022-12-13T03:42:56.629Z,-6.29
2022-12-13T03:45:23.133Z,-6.39
2022-12-13T03:47:49.630Z,-6.31
2022-12-13T03:50:28.385Z,-6.32
2022-12-13T03:52:59.593Z,-6.29
2022-12-13T03:55:26.530Z,-6.38
2022-12-13T03:57:53.065Z,-6.27
2022-12-13T04:00:19.872Z,-6.25
2022-12-13T04:02:46.460Z,-6.21
2022-12-13T04:05:13.223Z,-6.20
2022-12-13T04:07:40.332Z,-6.18
2022-12-13T04:10:26.094Z,-6.16
2022-12-13T04:13:12.568Z,-6.15
2022-12-13T04:15:39.477Z,-6.13
2022-12-13T04:18:06.080Z,-6.45
2022-12-13T04:20:32.587Z,-6.21
2022-12-13T04:22:59.186Z,-6.21
2022-12-13T04:25:26.514Z,-6.23
2022-12-13T04:27:52.993Z,-6.30
2022-12-13T04:30:19.631Z,-6.25
2022-12-13T04:32:46.176Z,-6.32
2022-12-13T04:35:12.876Z,-6.30
2022-12-13T04:37:39.728Z,-6.37
2022-12-13T04:40:10.609Z,-6.37
2022-12-13T04:42:37.241Z,-6.57
2022-12-13T04:45:04.038Z,-6.51
2022-12-13T04:47:30.542Z,-6.62
2022-12-13T04:49:57.015Z,-6.56
2022-12-13T04:52:24.079Z,-6.63
2022-12-13T04:54:55.305Z,-6.73
2022-12-13T04:57:23.505Z,-6.72
2022-12-13T04:59:50.027Z,-6.75
2022-12-13T05:02:23.561Z,-6.82
2022-12-13T05:04:53.838Z,-6.74
2022-12-13T05:07:20.871Z,-6.71
2022-12-13T05:09:47.331Z,-6.69
2022-12-13T05:12:23.063Z,-6.80
2022-12-13T05:14:51.011Z,-6.77
2022-12-13T05:17:17.539Z,-6.74
2022-12-13T05:19:44.069Z,-6.77
2022-12-13T05:22:19.685Z,-6.81
2022-12-13T05:24:47.979Z,-6.89
2022-12-13T05:27:25.807Z,-6.97
2022-12-13T05:30:02.727Z,-6.90
2022-12-13T05:32:43.816Z,-6.96
2022-12-13T05:35:23.195Z,-6.99
2022-12-13T05:37:55.128Z,-7.00
2022-12-13T05:40:26.426Z,-7.00
2022-12-13T05:43:01.449Z,-7.01
2022-12-13T05:45:29.789Z,-7.05
2022-12-13T05:47:56.311Z,-7.06
2022-12-13T05:50:23.285Z,-7.09
2022-12-13T05:52:49.839Z,-7.19
2022-12-13T05:55:17.036Z,-7.05
2022-12-13T05:57:50.661Z,-7.09
2022-12-13T06:00:29.372Z,-7.02
2022-12-13T06:03:00.912Z,-7.02
2022-12-13T06:05:29.181Z,-7.06
2022-12-13T06:07:57.403Z,-7.12
2022-12-13T06:10:24.595Z,-7.14
2022-12-13T06:12:51.134Z,-7.13
2022-12-13T06:15:22.030Z,-7.11
2022-12-13T06:17:49.290Z,-7.08
2022-12-13T06:20:23.499Z,-7.07
2022-12-13T06:22:54.042Z,-7.16
2022-12-13T06:25:30.726Z,-7.27
2022-12-13T06:28:00.833Z,-7.33
2022-12-13T06:30:29.893Z,-7.42
2022-12-13T06:32:57.664Z,-7.34
2022-12-13T06:35:28.060Z,-7.36
2022-12-13T06:38:01.341Z,-7.72
2022-12-13T06:40:31.897Z,-7.28
2022-12-13T06:42:58.429Z,-7.37
2022-12-13T06:45:25.970Z,-7.25
2022-12-13T06:47:52.580Z,-7.25
2022-12-13T06:50:19.252Z,-7.42
2022-12-13T06:52:46.658Z,-7.32
2022-12-13T06:55:13.603Z,-7.30
2022-12-13T06:57:40.599Z,-7.51
2022-12-13T07:00:09.280Z,-7.47
2022-12-13T07:02:35.943Z,-7.28
2022-12-13T07:05:02.680Z,-7.31
2022-12-13T07:07:29.702Z,-7.42
2022-12-13T07:09:56.447Z,-7.33
2022-12-13T07:12:23.448Z,-7.23
2022-12-13T07:14:49.998Z,-7.14
2022-12-13T07:17:31.892Z,-7.10
2022-12-13T07:20:01.084Z,-7.03
2022-12-13T07:22:28.205Z,-6.94
2022-12-13T07:24:54.712Z,-7.05
2022-12-13T07:27:21.234Z,-6.97
2022-12-13T07:29:47.725Z,-6.91
2022-12-13T07:32:14.432Z,-6.86
2022-12-13T07:34:40.909Z,-6.89
2022-12-13T07:37:09.431Z,-6.74
2022-12-13T07:40:02.648Z,-6.74
2022-12-13T07:42:30.318Z,-6.78
2022-12-13T07:44:56.826Z,-6.67
2022-12-13T07:47:23.508Z,-6.66
2022-12-13T07:49:50.037Z,-6.65
2022-12-13T07:52:16.642Z,-7.03
2022-12-13T07:54:43.908Z,-6.61
2022-12-13T07:57:10.920Z,-6.56
2022-12-13T07:59:37.422Z,-6.57
2022-12-13T08:02:03.982Z,-6.56
2022-12-13T08:04:37.751Z,-6.58
2022-12-13T08:07:09.033Z,-6.65
2022-12-13T08:09:36.294Z,-6.69
2022-12-13T08:12:03.380Z,-6.54
2022-12-13T08:14:29.884Z,-6.52
2022-12-13T08:16:56.867Z,-6.57
2022-12-13T08:19:24.041Z,-6.58
2022-12-13T08:21:55.664Z,-7.00
2022-12-13T08:24:24.947Z,-6.56
2022-12-13T08:26:54.594Z,-6.53
2022-12-13T08:29:23.096Z,-6.46
2022-12-13T08:32:02.111Z,-6.44
2022-12-13T08:34:29.169Z,-6.43
2022-12-13T08:37:02.143Z,-6.34
2022-12-13T08:39:34.002Z,-6.31
2022-12-13T08:42:16.655Z,-6.23
2022-12-13T08:44:45.706Z,-6.25
2022-12-13T08:47:12.125Z,-6.19
2022-12-13T08:49:50.695Z,-6.22
2022-12-13T08:52:17.842Z,-6.12
2022-12-13T08:54:44.716Z,-6.11
2022-12-13T08:57:11.227Z,-6.04
2022-12-13T08:59:37.715Z,-6.04
2022-12-13T09:02:05.297Z,-6.01
2022-12-13T09:04:32.409Z,-5.92
2022-12-13T09:07:01.740Z,-6.05
2022-12-13T09:09:29.699Z,-5.87
2022-12-13T09:11:59.483Z,-5.84
2022-12-13T09:14:33.537Z,-5.74
2022-12-13T09:17:02.810Z,-5.85
2022-12-13T09:19:37.393Z,-5.79
2022-12-13T09:22:05.178Z,-5.70
2022-12-13T09:24:36.723Z,-5.51
2022-12-13T09:27:09.046Z,-5.42
2022-12-13T09:29:37.229Z,-5.34
2022-12-13T09:32:04.363Z,-5.45
2022-12-13T09:34:32.928Z,-5.36
2022-12-13T09:37:01.538Z,-5.37
2022-12-13T09:39:29.360Z,-5.61
2022-12-13T09:42:01.245Z,-5.51
2022-12-13T09:44:43.680Z,-5.59
2022-12-13T09:47:23.640Z,-5.52
2022-12-13T09:49:53.789Z,-5.59
2022-12-13T09:52:23.628Z,-5.51
2022-12-13T09:54:54.026Z,-5.48
2022-12-13T09:57:31.413Z,-5.36
2022-12-13T10:00:12.451Z,-5.33
2022-12-13T10:02:47.048Z,-5.25
2022-12-13T10:05:34.192Z,-5.25
2022-12-13T10:08:13.612Z,-5.18
2022-12-13T10:10:40.277Z,-5.22
2022-12-13T10:13:15.736Z,-4.96
2022-12-13T10:15:46.660Z,-4.95
2022-12-13T10:18:20.091Z,-4.91
2022-12-13T10:20:49.407Z,-4.81
2022-12-13T10:23:33.691Z,-4.78
2022-12-13T10:26:09.821Z,-4.59
2022-12-13T10:28:51.455Z,-4.54
2022-12-13T10:31:20.336Z,-4.73
2022-12-13T10:33:55.517Z,-4.38
2022-12-13T10:36:32.899Z,-4.33
2022-12-13T10:38:59.432Z,-4.31
2022-12-13T10:41:37.885Z,-4.30
2022-12-13T10:44:11.484Z,-4.17
2022-12-13T10:46:40.639Z,-4.22
2022-12-13T10:49:24.837Z,-4.15
2022-12-13T10:51:53.741Z,-4.07
2022-12-13T10:54:29.673Z,-4.04
2022-12-13T10:57:10.602Z,-4.03
2022-12-13T10:59:39.535Z,-4.00
2022-12-13T11:02:51.373Z,-3.96
2022-12-13T11:05:33.399Z,-3.89
2022-12-13T11:08:22.274Z,-3.86
2022-12-13T11:11:04.453Z,-3.85
2022-12-13T11:13:40.395Z,-3.82
2022-12-13T11:16:24.659Z,-3.66
2022-12-13T11:18:54.603Z,-3.62
2022-12-13T11:21:26.950Z,-3.63
2022-12-13T11:23:56.337Z,-3.61
2022-12-13T11:26:30.960Z,-3.46
2022-12-13T11:29:16.373Z,-3.43
2022-12-13T11:32:33.935Z,-3.38
2022-12-13T11:35:25.926Z,-3.26
2022-12-13T11:38:05.151Z,-3.17
2022-12-13T11:40:43.754Z,-3.25
2022-12-13T11:43:35.955Z,-3.25
2022-12-13T11:46:15.263Z,-3.48
2022-12-13T11:48:53.109Z,-2.96
2022-12-13T11:51:28.324Z,-3.04
2022-12-13T11:54:01.024Z,-2.93
2022-12-13T11:56:33.284Z,-2.92
2022-12-13T11:59:26.562Z,-2.76
2022-12-13T12:02:34.185Z,-2.78
2022-12-13T12:05:08.294Z,-2.74
2022-12-13T12:08:21.057Z,-2.61
2022-12-13T12:10:49.300Z,-2.43
2022-12-13T12:13:34.325Z,-2.32
2022-12-13T12:16:50.752Z,-2.15
2022-12-13T12:19:23.313Z,-2.53
2022-12-13T12:25:19.967Z,-2.13
2022-12-13T12:28:04.855Z,-2.18
2022-12-13T12:30:52.964Z,-2.13
2022-12-13T12:33:19.422Z,-2.04
2022-12-13T12:36:09.730Z,-2.03
2022-12-13T12:38:38.974Z,-2.13
2022-12-13T12:41:23.050Z,-2.38
2022-12-13T12:44:00.205Z,-2.20
2022-12-13T12:47:18.911Z,-2.15
2022-12-13T12:50:22.226Z,-2.17
2022-12-13T12:53:03.986Z,-2.34
2022-12-13T12:56:01.047Z,-2.20
2022-12-13T12:58:42.526Z,-2.28
2022-12-13T13:01:28.848Z,-2.09
2022-12-13T13:04:01.809Z,-2.32
2022-12-13T13:06:37.624Z,-2.34
2022-12-13T13:09:10.263Z,-2.28
2022-12-13T13:11:42.797Z,-2.69
2022-12-13T13:14:28.750Z,-2.34
2022-12-13T13:16:55.878Z,-2.29
2022-12-13T13:19:31.177Z,-2.24
2022-12-13T13:22:02.376Z,-2.28
2022-12-13T13:24:32.778Z,-2.16
2022-12-13T13:27:11.509Z,-1.98
2022-12-13T13:29:43.265Z,-2.03
2022-12-13T13:32:28.647Z,-2.12
2022-12-13T13:35:32.360Z,-2.17
2022-12-13T13:38:22.187Z,-2.18
2022-12-13T13:40:49.008Z,-2.15
2022-12-13T13:43:31.860Z,-2.19
2022-12-13T13:46:02.027Z,-2.22
2022-12-13T13:48:55.679Z,-2.31
2022-12-13T13:51:28.849Z,-2.39
2022-12-13T13:54:13.989Z,-2.59
2022-12-13T13:56:59.173Z,-2.41
2022-12-13T13:59:40.969Z,-2.41
2022-12-13T14:02:16.647Z,-2.47
2022-12-13T14:05:23.176Z,-2.43
2022-12-13T14:08:07.802Z,-2.42
2022-12-13T14:10:37.177Z,-2.52
2022-12-13T14:13:44.957Z,-2.55
2022-12-13T14:16:40.085Z,-2.78
2022-12-13T14:19:24.882Z,-2.70
2022-12-13T14:22:03.468Z,-2.72
2022-12-13T14:24:40.212Z,-2.82
2022-12-13T14:27:23.248Z,-2.91
2022-12-13T14:29:58.181Z,-3.03
2022-12-13T14:32:29.410Z,-3.15
2022-12-13T14:34:57.745Z,-3.19
2022-12-13T14:37:37.750Z,-3.28
2022-12-13T14:40:26.997Z,-3.27
2022-12-13T14:42:56.408Z,-3.26
2022-12-13T14:45:29.499Z,-3.25
2022-12-13T14:48:15.211Z,-3.25
2022-12-13T14:50:44.520Z,-3.23
2022-12-13T14:53:29.877Z,-3.31
2022-12-13T14:56:27.750Z,-3.35
2022-12-13T14:59:01.366Z,-3.31
2022-12-13T15:01:38.428Z,-3.37
2022-12-13T15:04:29.556Z,-3.43
2022-12-13T15:07:07.141Z,-3.46
2022-12-13T15:09:42.339Z,-3.38
2022-12-13T15:12:24.785Z,-3.39
2022-12-13T15:15:08.318Z,-3.41
2022-12-13T15:17:37.320Z,-3.54
2022-12-13T15:20:22.389Z,-3.54
2022-12-13T15:23:01.181Z,-3.50
2022-12-13T15:25:34.742Z,-3.45
2022-12-13T15:28:01.525Z,-3.41
2022-12-13T15:30:34.270Z,-3.41
2022-12-13T15:33:05.390Z,-3.40
2022-12-13T15:35:32.331Z,-3.35
2022-12-13T15:38:01.223Z,-3.38
2022-12-13T15:40:27.768Z,-3.35
2022-12-13T15:42:54.383Z,-3.45
2022-12-13T15:45:28.265Z,-3.87
2022-12-13T15:48:00.032Z,-3.50
2022-12-13T15:50:48.964Z,-3.52
2022-12-13T15:53:27.733Z,-3.68
2022-12-13T15:55:54.616Z,-3.60
2022-12-13T15:58:27.236Z,-3.57
2022-12-13T16:00:54.093Z,-3.60
2022-12-13T16:03:23.731Z,-3.58
2022-12-13T16:05:53.223Z,-3.79
2022-12-13T16:08:28.035Z,-3.69
2022-12-13T16:10:55.069Z,-3.75
2022-12-13T16:13:37.106Z,-3.67
2022-12-13T16:16:10.104Z,-3.73
2022-12-13T16:18:46.046Z,-3.65
2022-12-13T16:21:14.193Z,-3.64
2022-12-13T16:23:40.828Z,-3.65
2022-12-13T16:26:20.771Z,-3.69
2022-12-13T16:28:47.192Z,-3.70
2022-12-13T16:31:22.913Z,-3.76
2022-12-13T16:33:49.912Z,-3.71
2022-12-13T16:36:16.577Z,-3.67
2022-12-13T16:38:43.344Z,-3.72
2022-12-13T16:41:10.361Z,-3.80
2022-12-13T16:43:46.524Z,-3.96
2022-12-13T16:47:17.975Z,-3.79
2022-12-13T16:49:05.438Z,-3.90
2022-12-13T16:51:31.925Z,-3.78
2022-12-13T16:53:58.386Z,-3.86
2022-12-13T16:56:24.930Z,-3.93
2022-12-13T16:58:51.413Z,-3.92
2022-12-13T17:01:20.055Z,-3.90
2022-12-13T17:03:46.901Z,-3.88
2022-12-13T17:06:14.907Z,-3.85
2022-12-13T17:08:41.449Z,-3.92
2022-12-13T17:11:13.323Z,-3.99
2022-12-13T17:13:44.640Z,-3.98
2022-12-13T17:16:11.400Z,-4.06
2022-12-13T17:18:38.053Z,-4.08
2022-12-13T17:21:08.631Z,-4.08
2022-12-13T17:23:35.139Z,-4.33
2022-12-13T17:26:10.111Z,-4.06
2022-12-13T17:28:36.842Z,-4.04
2022-12-13T17:31:10.083Z,-4.05
2022-12-13T17:33:36.648Z,-4.03
2022-12-13T17:36:07.828Z,-4.06
2022-12-13T17:38:34.651Z,-3.98
2022-12-13T17:41:01.296Z,-3.99
2022-12-13T17:43:34.317Z,-3.97
2022-12-13T17:46:04.187Z,-3.93
2022-12-13T17:48:39.273Z,-4.06
2022-12-13T17:51:08.348Z,-4.06
2022-12-13T17:53:36.036Z,-4.00
2022-12-13T17:56:06.511Z,-3.98
2022-12-13T17:58:33.713Z,-4.02
2022-12-13T18:01:16.865Z,-3.98
2022-12-13T18:03:44.112Z,-4.11
2022-12-13T18:06:11.911Z,-3.93
2022-12-13T18:08:42.335Z,-3.94
2022-12-13T18:11:31.910Z,-3.94
2022-12-13T18:13:56.084Z,-4.05
2022-12-13T18:16:26.724Z,-4.02
2022-12-13T18:18:57.042Z,-4.13
2022-12-13T18:21:25.931Z,-4.06
2022-12-13T18:23:55.501Z,-4.06
2022-12-13T18:26:24.347Z,-4.02
2022-12-13T18:28:51.790Z,-4.00
2022-12-13T18:31:22.319Z,-3.96
2022-12-13T18:33:51.146Z,-3.99
2022-12-13T18:36:19.495Z,-4.08
2022-12-13T18:38:47.944Z,-3.97
2022-12-13T18:41:17.398Z,-3.97
2022-12-13T18:43:45.180Z,-3.94
2022-12-13T18:46:13.518Z,-3.94
2022-12-13T18:48:40.591Z,-4.00
2022-12-13T18:51:09.001Z,-4.02
2022-12-13T18:53:37.252Z,-4.04
2022-12-13T18:56:07.749Z,-4.07
2022-12-13T18:58:36.962Z,-4.10
2022-12-13T19:01:04.810Z,-4.16
2022-12-13T19:03:32.466Z,-4.09
2022-12-13T19:06:01.019Z,-4.29
2022-12-13T19:08:30.657Z,-4.00
2022-12-13T19:10:59.996Z,-4.01
2022-12-13T19:13:27.451Z,-4.05
2022-12-13T19:15:56.841Z,-4.07
2022-12-13T19:18:23.571Z,-4.01
2022-12-13T19:20:53.575Z,-3.97
2022-12-13T19:23:20.674Z,-3.93
2022-12-13T19:25:48.727Z,-3.95
2022-12-13T19:28:17.541Z,-3.83
2022-12-13T19:30:46.227Z,-3.76
2022-12-13T19:33:14.073Z,-3.78
2022-12-13T19:35:43.039Z,-3.91
2022-12-13T19:38:10.134Z,-3.81
2022-12-13T19:40:43.519Z,-3.81
2022-12-13T19:43:11.372Z,-3.78
2022-12-13T19:45:38.490Z,-3.77
2022-12-13T19:48:05.611Z,-3.75
2022-12-13T19:50:32.112Z,-3.75
2022-12-13T19:52:58.582Z,-3.74
2022-12-13T19:55:25.091Z,-3.75
2022-12-13T19:57:51.706Z,-3.71
2022-12-13T20:00:18.406Z,-3.64
2022-12-13T20:02:45.032Z,-3.71
2022-12-13T20:05:11.584Z,-3.76
2022-12-13T20:07:38.157Z,-3.86
2022-12-13T20:10:05.989Z,-3.77
2022-12-13T20:12:38.860Z,-3.76
2022-12-13T20:15:07.714Z,-3.94
2022-12-13T20:17:35.579Z,-3.86
2022-12-13T20:20:02.632Z,-3.86
2022-12-13T20:22:29.240Z,-3.91
2022-12-13T20:24:55.723Z,-3.80
2022-12-13T20:27:22.271Z,-3.82
2022-12-13T20:29:49.308Z,-3.97
2022-12-13T20:32:16.460Z,-4.20
2022-12-13T20:34:43.078Z,-4.03
2022-12-13T20:37:09.671Z,-4.06
2022-12-13T20:39:36.352Z,-4.14
2022-12-13T20:42:02.890Z,-4.14
2022-12-13T20:44:29.455Z,-4.19
2022-12-13T20:46:56.042Z,-4.19
2022-12-13T20:49:22.591Z,-4.24
2022-12-13T20:51:49.124Z,-4.20
2022-12-13T20:54:15.681Z,-4.20
2022-12-13T20:56:42.251Z,-4.21
2022-12-13T20:59:11.977Z,-4.34
2022-12-13T21:01:40.806Z,-4.22
2022-12-13T21:04:10.083Z,-4.22
2022-12-13T21:06:39.936Z,-4.37
2022-12-13T21:09:31.281Z,-5.07
2022-12-13T21:19:44.560Z,-5.27
2022-12-13T21:23:38.201Z,-4.29
2022-12-13T21:34:19.780Z,-4.85
2022-12-13T21:37:17.096Z,-4.27
2022-12-13T21:44:21.817Z,-4.79
2022-12-13T21:59:16.237Z,-4.28
2022-12-13T22:06:48.655Z,-4.96
2022-12-13T22:13:24.728Z,-3.98
2022-12-13T22:16:48.234Z,-4.45
2022-12-13T22:23:37.142Z,-3.96
2022-12-13T22:26:49.616Z,-4.19
2022-12-13T22:29:54.392Z,-4.50
2022-12-13T22:33:08.190Z,-3.92
2022-12-13T22:36:06.096Z,-4.84
2022-12-13T22:46:31.160Z,-5.07
2022-12-13T22:49:41.221Z,-4.93
2022-12-13T22:55:56.260Z,-4.78
2022-12-13T22:58:36.070Z,-4.99
2022-12-13T23:01:47.293Z,-4.01
2022-12-13T23:08:43.279Z,-4.60
2022-12-13T23:12:12.284Z,-4.55
2022-12-13T23:18:18.651Z,-4.72
2022-12-13T23:21:56.631Z,-4.43
2022-12-13T23:24:46.880Z,-4.40
2022-12-13T23:31:56.498Z,-4.81
2022-12-13T23:38:29.700Z,-4.91
2022-12-13T23:41:45.244Z,-3.92
2022-12-13T23:45:09.171Z,-4.34
2022-12-13T23:58:21.085Z,-3.65
